KONA/ONA METAR and TAF weather

Enter ICAO airport designator
Station Type Date Time Source
KONA METAR 2020/06/03 23:15 UTC NOAA

KONA 032315Z AUTO 34005KT 10SM CLR 28/17 A2976 RMK AO2


Station Type Date Time Source
KONA Decoded METAR 2020/06/03 23:15 UTC NOAA

Winona, Winona Municipal Airport-Max Conrad Field, MN, United States (KONA) 44-05N 091-42W
Jun 03, 2020 - 07:15 PM EDT / 2020.06.03 2315 UTC
Wind: from the NNW (340 degrees) at 6 MPH (5 KT):0
Visibility: 10 mile(s):0
Sky conditions: clear
Temperature: 82 F (28 C)
Dew Point: 62 F (17 C)
Relative Humidity: 51%
Pressure (altimeter): 29.76 in. Hg (1007 hPa)
ob: KONA 032315Z AUTO 34005KT 10SM CLR 28/17 A2976 RMK AO2
cycle: 23

Station Type Date Time Source
KONA TAF UTC NOAA

Error!

Example: see airport list